createdAt,value
2018-09-04T00:02:27.089Z,21.30
2018-09-04T00:05:01.011Z,21.40
2018-09-04T00:07:34.770Z,21.40
2018-09-04T00:10:09.395Z,21.30
2018-09-04T00:12:42.758Z,21.40
2018-09-04T00:15:16.044Z,21.30
2018-09-04T00:17:50.532Z,21.40
2018-09-04T00:20:23.877Z,21.40
2018-09-04T00:22:57.759Z,21.50
2018-09-04T00:25:32.005Z,21.70
2018-09-04T00:28:08.309Z,21.70
2018-09-04T00:30:41.555Z,21.70
2018-09-04T00:33:15.188Z,21.50
2018-09-04T00:35:48.549Z,21.50
2018-09-04T00:38:22.146Z,21.60
2018-09-04T00:40:55.821Z,21.70
2018-09-04T00:43:29.447Z,21.80
2018-09-04T00:46:02.676Z,22.00
2018-09-04T00:48:36.143Z,21.90
2018-09-04T00:51:09.446Z,22.00
2018-09-04T00:53:42.724Z,21.80
2018-09-04T00:56:16.220Z,21.60
2018-09-04T00:58:49.485Z,21.60
2018-09-04T01:01:24.309Z,21.70
2018-09-04T01:03:57.713Z,21.60
2018-09-04T01:06:31.595Z,21.60
2018-09-04T01:09:05.364Z,21.60
2018-09-04T01:11:38.640Z,21.70
2018-09-04T01:14:12.096Z,21.60
2018-09-04T01:16:45.600Z,21.20
2018-09-04T01:19:19.432Z,20.80
2018-09-04T01:21:53.618Z,19.90
2018-09-04T01:24:27.543Z,18.80
2018-09-04T01:27:00.707Z,18.60
2018-09-04T01:29:35.486Z,18.90
2018-09-04T01:32:08.870Z,19.20
2018-09-04T01:34:42.517Z,19.20
2018-09-04T01:37:15.687Z,19.30
2018-09-04T01:39:49.019Z,19.40
2018-09-04T01:42:22.939Z,19.40
2018-09-04T01:44:56.495Z,19.20
2018-09-04T01:47:30.062Z,19.20
2018-09-04T01:50:04.230Z,19.20
2018-09-04T01:52:37.901Z,19.20
2018-09-04T01:55:11.281Z,19.20
2018-09-04T01:57:44.837Z,19.20
2018-09-04T02:00:18.419Z,19.20
2018-09-04T02:02:51.593Z,19.30
2018-09-04T02:05:25.165Z,19.20
2018-09-04T02:07:58.323Z,19.20
2018-09-04T02:10:33.300Z,19.30
2018-09-04T02:13:07.161Z,19.30
2018-09-04T02:15:41.127Z,19.50
2018-09-04T02:18:14.518Z,19.30
2018-09-04T02:20:47.915Z,19.20
2018-09-04T02:23:21.291Z,18.90
2018-09-04T02:25:54.542Z,18.70
2018-09-04T02:28:27.830Z,18.80
2018-09-04T02:31:01.869Z,18.80
2018-09-04T02:33:35.227Z,18.80
2018-09-04T02:36:08.493Z,18.60
2018-09-04T02:38:41.759Z,18.70
2018-09-04T02:41:15.225Z,18.80
2018-09-04T02:43:48.657Z,18.90
2018-09-04T02:46:21.836Z,19.10
2018-09-04T02:48:55.601Z,19.30
2018-09-04T02:51:29.098Z,19.20
2018-09-04T02:54:02.589Z,19.20
2018-09-04T02:56:36.019Z,19.30
2018-09-04T02:59:09.601Z,19.30
2018-09-04T03:01:42.989Z,19.40
2018-09-04T03:04:16.226Z,19.40
2018-09-04T03:06:49.419Z,19.50
2018-09-04T03:09:22.680Z,19.60
2018-09-04T03:11:56.168Z,19.60
2018-09-04T03:14:29.898Z,19.60
2018-09-04T03:17:03.020Z,19.70
2018-09-04T03:19:36.297Z,19.60
2018-09-04T03:22:09.841Z,19.50
2018-09-04T03:24:43.067Z,19.50
2018-09-04T03:27:16.216Z,19.50
2018-09-04T03:29:49.511Z,19.50
2018-09-04T03:32:23.247Z,19.40
2018-09-04T03:34:56.448Z,19.50
2018-09-04T03:37:29.539Z,19.40
2018-09-04T03:40:02.846Z,19.40
2018-09-04T03:42:36.021Z,19.40
2018-09-04T03:45:09.901Z,19.50
2018-09-04T03:47:43.572Z,19.40
2018-09-04T03:50:16.835Z,19.30
2018-09-04T03:52:50.504Z,19.40
2018-09-04T03:55:23.736Z,19.40
2018-09-04T03:57:58.027Z,19.50
2018-09-04T04:00:31.225Z,19.50
2018-09-04T04:03:04.991Z,19.40
2018-09-04T04:05:38.386Z,19.40
2018-09-04T04:08:11.622Z,19.50
2018-09-04T04:10:45.101Z,19.50
2018-09-04T04:13:18.536Z,19.50
2018-09-04T04:15:51.674Z,19.50
2018-09-04T04:18:25.000Z,19.50
2018-09-04T04:21:02.338Z,19.50
2018-09-04T04:23:35.530Z,19.60
2018-09-04T04:26:08.949Z,19.60
2018-09-04T04:28:42.613Z,19.60
2018-09-04T04:31:16.054Z,19.70
2018-09-04T04:33:49.653Z,19.70
2018-09-04T04:36:23.145Z,19.60
2018-09-04T04:38:56.489Z,19.70
2018-09-04T04:41:29.625Z,19.60
2018-09-04T04:44:02.996Z,19.60
2018-09-04T04:46:36.158Z,19.50
2018-09-04T04:49:10.342Z,19.50
2018-09-04T04:51:43.454Z,19.50
2018-09-04T04:54:16.890Z,19.40
2018-09-04T04:56:50.000Z,19.30
2018-09-04T04:59:23.246Z,19.20
2018-09-04T05:01:56.748Z,19.20
2018-09-04T05:04:30.098Z,19.20
2018-09-04T05:07:03.283Z,19.20
2018-09-04T05:09:37.071Z,19.20
2018-09-04T05:12:10.784Z,19.10
2018-09-04T05:14:44.168Z,19.00
2018-09-04T05:17:19.046Z,19.00
2018-09-04T05:19:52.354Z,18.90
2018-09-04T05:22:25.505Z,18.90
2018-09-04T05:24:58.704Z,19.00
2018-09-04T05:27:31.868Z,18.90
2018-09-04T05:30:05.516Z,18.80
2018-09-04T05:32:44.571Z,18.60
2018-09-04T05:35:18.309Z,18.50
2018-09-04T05:37:51.624Z,18.50
2018-09-04T05:40:25.001Z,18.40
2018-09-04T05:43:00.822Z,18.30
2018-09-04T05:45:35.375Z,18.30
2018-09-04T05:48:12.701Z,18.30
2018-09-04T05:50:47.041Z,18.40
2018-09-04T05:53:20.519Z,18.50
2018-09-04T05:55:54.044Z,18.40
2018-09-04T05:58:27.172Z,18.40
2018-09-04T06:01:03.498Z,18.40
2018-09-04T06:03:36.822Z,18.50
2018-09-04T06:06:10.231Z,18.60
2018-09-04T06:08:43.692Z,18.50
2018-09-04T06:11:17.156Z,18.40
2018-09-04T06:13:50.353Z,18.40
2018-09-04T06:16:23.913Z,18.40
2018-09-04T06:18:57.210Z,18.30
2018-09-04T06:21:30.317Z,18.40
2018-09-04T06:24:03.660Z,18.40
2018-09-04T06:26:36.833Z,18.50
2018-09-04T06:29:10.056Z,18.40
2018-09-04T06:31:43.315Z,18.50
2018-09-04T06:34:16.727Z,18.50
2018-09-04T06:36:50.537Z,18.50
2018-09-04T06:39:24.203Z,18.50
2018-09-04T06:41:57.564Z,18.60
2018-09-04T06:44:30.777Z,18.50
2018-09-04T06:47:03.971Z,18.60
2018-09-04T06:49:37.332Z,18.70
2018-09-04T06:52:11.812Z,18.80
2018-09-04T06:54:45.428Z,18.80
2018-09-04T06:57:19.286Z,18.80
2018-09-04T06:59:52.983Z,18.70
2018-09-04T07:02:26.188Z,18.70
2018-09-04T07:04:59.918Z,18.60
2018-09-04T07:07:33.075Z,18.60
2018-09-04T07:10:06.546Z,18.70
2018-09-04T07:12:39.772Z,18.90
2018-09-04T07:15:13.095Z,18.90
2018-09-04T07:17:46.526Z,19.10
2018-09-04T07:20:19.933Z,19.30
2018-09-04T07:22:53.573Z,19.40
2018-09-04T07:25:26.937Z,19.40
2018-09-04T07:28:00.126Z,19.40
2018-09-04T07:30:33.675Z,19.50
2018-09-04T07:33:06.998Z,19.60
2018-09-04T07:35:40.222Z,19.70
2018-09-04T07:38:13.527Z,19.60
2018-09-04T07:40:46.802Z,19.60
2018-09-04T07:43:19.991Z,19.70
2018-09-04T07:45:53.208Z,19.60
2018-09-04T07:48:26.355Z,19.50
2018-09-04T07:50:59.615Z,19.50
2018-09-04T07:53:33.309Z,19.40
2018-09-04T07:56:06.683Z,19.40
2018-09-04T07:58:40.329Z,19.40
2018-09-04T08:01:13.910Z,19.30
2018-09-04T08:03:47.190Z,19.30
2018-09-04T08:06:20.387Z,19.30
2018-09-04T08:08:53.672Z,19.20
2018-09-04T08:11:28.537Z,19.20
2018-09-04T08:14:01.881Z,19.20
2018-09-04T08:16:35.547Z,19.20
2018-09-04T08:19:08.869Z,19.20
2018-09-04T08:21:42.371Z,19.30
2018-09-04T08:24:15.610Z,19.20
2018-09-04T08:26:48.722Z,19.10
2018-09-04T08:29:22.045Z,19.10
2018-09-04T08:31:55.651Z,19.10
2018-09-04T08:34:29.015Z,19.00
2018-09-04T08:37:02.125Z,18.90
2018-09-04T08:39:35.671Z,18.80
2018-09-04T08:42:09.209Z,18.70
2018-09-04T08:44:42.586Z,18.60
2018-09-04T08:47:15.838Z,18.60
2018-09-04T08:49:49.179Z,18.60
2018-09-04T08:52:22.371Z,18.60
2018-09-04T08:54:56.518Z,18.60
2018-09-04T08:57:30.378Z,18.70
2018-09-04T09:00:04.014Z,18.80
2018-09-04T09:02:37.601Z,19.00
2018-09-04T09:05:11.110Z,19.00
2018-09-04T09:07:44.306Z,18.90
2018-09-04T09:10:17.855Z,19.00
2018-09-04T09:12:51.180Z,19.10
2018-09-04T09:15:24.890Z,19.00
2018-09-04T09:17:58.280Z,18.90
2018-09-04T09:20:31.714Z,19.00
2018-09-04T09:23:04.973Z,18.90
2018-09-04T09:25:38.619Z,19.00
2018-09-04T09:28:12.014Z,19.00
2018-09-04T09:30:45.922Z,19.00
2018-09-04T09:33:19.284Z,19.00
2018-09-04T09:35:52.586Z,19.00
2018-09-04T09:38:25.860Z,19.00
2018-09-04T09:40:59.234Z,18.90
2018-09-04T09:43:32.328Z,18.90
2018-09-04T09:46:05.732Z,19.00
2018-09-04T09:48:44.223Z,18.90
2018-09-04T09:51:17.685Z,19.00
2018-09-04T09:53:50.905Z,18.90
2018-09-04T09:56:24.685Z,18.90
2018-09-04T09:58:58.146Z,18.90
2018-09-04T10:01:36.112Z,18.90
2018-09-04T10:04:10.213Z,18.90
2018-09-04T10:06:43.495Z,18.90
2018-09-04T10:09:16.792Z,18.80
2018-09-04T10:11:50.191Z,18.80
2018-09-04T10:14:23.470Z,18.80
2018-09-04T10:16:57.106Z,18.90
2018-09-04T10:19:30.478Z,18.90
2018-09-04T10:22:04.177Z,18.90
2018-09-04T10:24:37.387Z,18.90
2018-09-04T10:27:10.637Z,18.80
2018-09-04T10:29:43.721Z,18.80
2018-09-04T10:32:17.089Z,18.70
2018-09-04T10:34:50.207Z,18.70
2018-09-04T10:37:23.704Z,18.60
2018-09-04T10:40:01.020Z,18.40
2018-09-04T10:42:35.114Z,18.30
2018-09-04T10:45:12.470Z,18.30
2018-09-04T10:47:45.753Z,18.40
2018-09-04T10:50:18.936Z,18.30
2018-09-04T10:52:52.276Z,18.40
2018-09-04T10:55:25.629Z,18.50
2018-09-04T10:57:59.830Z,18.60
2018-09-04T11:00:33.026Z,18.60
2018-09-04T11:03:06.472Z,18.60
2018-09-04T11:05:40.245Z,18.60
2018-09-04T11:08:13.571Z,18.70
2018-09-04T11:10:46.829Z,18.80
2018-09-04T11:13:20.271Z,18.80
2018-09-04T11:15:53.917Z,18.80
2018-09-04T11:18:27.311Z,18.80
2018-09-04T11:21:00.803Z,18.70
2018-09-04T11:23:34.224Z,18.70
2018-09-04T11:26:07.783Z,18.80
2018-09-04T11:28:44.523Z,18.80
2018-09-04T11:31:17.714Z,18.80
2018-09-04T11:33:51.051Z,18.80
2018-09-04T11:36:24.398Z,18.80
2018-09-04T11:38:57.505Z,18.80
2018-09-04T11:41:30.801Z,18.90
2018-09-04T11:44:04.206Z,18.90
2018-09-04T11:46:37.858Z,18.90
2018-09-04T11:49:11.023Z,18.80
2018-09-04T11:51:44.488Z,18.80
2018-09-04T11:54:17.619Z,18.80
2018-09-04T11:56:50.886Z,18.80
2018-09-04T11:59:24.858Z,18.70
2018-09-04T12:02:00.726Z,18.60
2018-09-04T12:04:34.221Z,18.60
2018-09-04T12:07:07.537Z,18.60
2018-09-04T12:09:40.778Z,18.60
2018-09-04T12:12:43.847Z,18.60
2018-09-04T12:15:17.048Z,18.60
2018-09-04T12:17:50.344Z,18.40
2018-09-04T12:20:48.225Z,18.30
2018-09-04T12:23:22.165Z,18.40
2018-09-04T12:25:57.733Z,18.40
2018-09-04T12:28:31.047Z,18.30
2018-09-04T12:31:04.699Z,18.30
2018-09-04T12:33:38.044Z,18.30
2018-09-04T12:36:11.837Z,18.40
2018-09-04T12:38:46.043Z,18.50
2018-09-04T12:41:20.398Z,18.50
2018-09-04T12:43:53.699Z,18.50
2018-09-04T12:46:30.690Z,18.60
2018-09-04T12:49:04.198Z,18.70
2018-09-04T12:51:37.312Z,18.90
2018-09-04T12:54:10.620Z,19.30
2018-09-04T12:56:44.647Z,19.80
2018-09-04T12:59:20.689Z,20.20
2018-09-04T13:01:54.314Z,20.50
2018-09-04T13:04:27.999Z,20.70
2018-09-04T13:07:01.517Z,20.80
2018-09-04T13:09:34.846Z,20.70
2018-09-04T13:12:08.007Z,20.70
2018-09-04T13:14:41.663Z,20.60
2018-09-04T13:17:14.978Z,20.40
2018-09-04T13:19:48.738Z,20.40
2018-09-04T13:22:22.161Z,20.30
2018-09-04T13:24:55.970Z,20.30
2018-09-04T13:27:29.299Z,20.20
2018-09-04T13:30:02.681Z,20.10
2018-09-04T13:32:36.235Z,20.00
2018-09-04T13:35:09.789Z,19.90
2018-09-04T13:37:42.949Z,19.90
2018-09-04T13:40:16.512Z,19.80
2018-09-04T13:42:49.788Z,19.80
2018-09-04T13:45:23.453Z,19.70
2018-09-04T13:47:57.511Z,19.70
2018-09-04T13:50:31.206Z,19.50
2018-09-04T13:53:04.557Z,19.40
2018-09-04T13:55:38.270Z,19.30
2018-09-04T13:58:11.726Z,19.30
2018-09-04T14:00:45.440Z,19.40
2018-09-04T14:03:19.425Z,19.50
2018-09-04T14:05:52.800Z,19.60
2018-09-04T14:08:26.422Z,19.70
2018-09-04T14:11:00.229Z,20.00
2018-09-04T14:13:33.610Z,20.30
2018-09-04T14:16:10.164Z,20.20
2018-09-04T14:18:43.469Z,20.20
2018-09-04T14:21:16.748Z,20.30
2018-09-04T14:23:51.089Z,20.40
2018-09-04T14:26:24.893Z,20.50
2018-09-04T14:29:06.861Z,20.50
2018-09-04T14:31:33.100Z,20.50
2018-09-04T14:34:06.235Z,20.60
2018-09-04T14:36:41.410Z,20.70
2018-09-04T14:39:15.962Z,20.80
2018-09-04T14:41:49.620Z,20.90
2018-09-04T14:44:23.393Z,20.90
2018-09-04T14:46:59.308Z,21.00
2018-09-04T14:49:34.979Z,21.20
2018-09-04T14:52:08.584Z,21.40
2018-09-04T14:54:41.836Z,21.70
2018-09-04T14:57:15.564Z,21.80
2018-09-04T14:59:49.088Z,22.20
2018-09-04T15:02:22.388Z,22.90
2018-09-04T15:04:56.471Z,23.60
2018-09-04T15:07:30.025Z,24.10
2018-09-04T15:10:03.447Z,24.40
2018-09-04T15:12:40.121Z,24.70
2018-09-04T15:15:17.622Z,25.10
2018-09-04T15:17:49.517Z,25.50
2018-09-04T15:20:20.742Z,25.90
2018-09-04T15:22:52.370Z,26.20
2018-09-04T15:25:24.571Z,26.30
2018-09-04T15:27:56.011Z,26.50
2018-09-04T15:30:27.451Z,26.80
2018-09-04T15:33:00.923Z,26.80
2018-09-04T15:35:32.267Z,27.00
2018-09-04T15:38:03.905Z,27.20
2018-09-04T15:40:35.340Z,27.40
2018-09-04T15:43:08.221Z,27.50
2018-09-04T15:45:39.760Z,27.30
2018-09-04T15:48:12.259Z,27.10
2018-09-04T15:50:43.873Z,27.30
2018-09-04T15:53:15.430Z,27.20
2018-09-04T15:55:46.948Z,27.80
2018-09-04T15:58:18.617Z,28.00
2018-09-04T16:00:50.169Z,28.10
2018-09-04T16:03:25.246Z,28.20
2018-09-04T16:05:57.079Z,28.20
2018-09-04T16:08:28.731Z,27.80
2018-09-04T16:11:01.078Z,27.40
2018-09-04T16:13:32.511Z,27.10
2018-09-04T16:16:03.843Z,26.60
2018-09-04T16:18:39.827Z,26.30
2018-09-04T16:21:11.113Z,26.40
2018-09-04T16:23:42.886Z,26.40
2018-09-04T16:26:14.407Z,26.60
2018-09-04T16:28:46.074Z,26.70
2018-09-04T16:31:17.474Z,27.00
2018-09-04T16:33:49.575Z,27.40
2018-09-04T16:36:20.880Z,28.20
2018-09-04T16:38:53.320Z,28.30
2018-09-04T16:41:24.735Z,27.70
2018-09-04T16:43:56.383Z,28.30
2018-09-04T16:46:28.280Z,28.60
2018-09-04T16:49:01.435Z,28.80
2018-09-04T16:51:32.915Z,28.80
2018-09-04T16:54:04.474Z,28.90
2018-09-04T16:56:35.781Z,29.10
2018-09-04T16:59:07.327Z,28.40
2018-09-04T17:01:38.956Z,28.30
2018-09-04T17:04:10.549Z,28.20
2018-09-04T17:06:42.202Z,28.20
2018-09-04T17:09:13.768Z,28.20
2018-09-04T17:11:45.293Z,28.20
2018-09-04T17:14:18.004Z,28.40
2018-09-04T17:16:49.520Z,28.40
2018-09-04T17:19:20.812Z,28.30
2018-09-04T17:21:52.039Z,28.50
2018-09-04T17:24:23.674Z,28.90
2018-09-04T17:26:55.014Z,29.60
2018-09-04T17:29:26.693Z,29.90
2018-09-04T17:31:58.250Z,30.10
2018-09-04T17:34:29.617Z,30.00
2018-09-04T17:37:01.035Z,29.70
2018-09-04T17:39:32.636Z,29.40
2018-09-04T17:42:04.151Z,29.00
2018-09-04T17:44:36.227Z,28.70
2018-09-04T17:47:07.627Z,28.50
2018-09-04T17:49:39.618Z,28.10
2018-09-04T17:52:11.985Z,27.80
2018-09-04T17:54:43.708Z,27.50
2018-09-04T17:57:15.343Z,27.40
2018-09-04T17:59:46.679Z,27.50
2018-09-04T18:02:18.254Z,27.40
2018-09-04T18:04:50.615Z,27.40
2018-09-04T18:07:23.070Z,27.30
2018-09-04T18:09:54.865Z,26.90
2018-09-04T18:12:26.245Z,26.50
2018-09-04T18:14:59.182Z,26.70
2018-09-04T18:17:30.440Z,26.50
2018-09-04T18:20:03.033Z,26.40
2018-09-04T18:22:37.527Z,26.00
2018-09-04T18:25:08.864Z,25.70
2018-09-04T18:27:40.274Z,25.60
2018-09-04T18:30:13.174Z,25.30
2018-09-04T18:32:45.354Z,25.30
2018-09-04T18:35:16.939Z,25.30
2018-09-04T18:37:49.506Z,25.50
2018-09-04T18:40:21.212Z,25.70
2018-09-04T18:42:53.020Z,25.80
2018-09-04T18:45:30.177Z,25.90
2018-09-04T18:48:02.087Z,25.40
2018-09-04T18:50:34.942Z,24.90
2018-09-04T18:53:09.337Z,24.70
2018-09-04T18:55:41.552Z,24.60
2018-09-04T18:58:13.565Z,24.80
2018-09-04T19:00:45.691Z,25.10
2018-09-04T19:03:21.088Z,24.70
2018-09-04T19:05:54.574Z,24.50
2018-09-04T19:08:26.778Z,24.60
2018-09-04T19:10:58.469Z,25.10
2018-09-04T19:13:32.868Z,25.10
2018-09-04T19:16:04.196Z,24.70
2018-09-04T19:18:35.733Z,24.70
2018-09-04T19:21:07.040Z,24.10
2018-09-04T19:23:38.512Z,24.00
2018-09-04T19:26:10.053Z,24.10
2018-09-04T19:28:41.927Z,24.30
2018-09-04T19:31:13.396Z,24.40
2018-09-04T19:33:45.041Z,24.30
2018-09-04T19:36:17.334Z,24.10
2018-09-04T19:38:48.946Z,23.90
2018-09-04T19:41:21.072Z,24.00
2018-09-04T19:43:53.775Z,23.90
2018-09-04T19:46:24.958Z,24.10
2018-09-04T19:48:56.334Z,24.10
2018-09-04T19:51:28.171Z,24.00
2018-09-04T19:53:59.751Z,24.10
2018-09-04T19:56:31.231Z,24.00
2018-09-04T19:59:02.809Z,24.00
2018-09-04T20:01:34.617Z,24.10
2018-09-04T20:04:06.036Z,24.20
2018-09-04T20:06:37.553Z,24.10
2018-09-04T20:09:09.431Z,24.20
2018-09-04T20:11:41.484Z,24.30
2018-09-04T20:14:13.220Z,24.20
2018-09-04T20:16:44.713Z,24.20
2018-09-04T20:19:16.094Z,24.10
2018-09-04T20:21:47.382Z,24.00
2018-09-04T20:24:19.899Z,23.90
2018-09-04T20:26:51.481Z,23.90
2018-09-04T20:29:22.822Z,23.80
2018-09-04T20:31:54.604Z,23.80
2018-09-04T20:34:26.336Z,23.70
2018-09-04T20:36:58.416Z,23.40
2018-09-04T20:39:30.773Z,23.20
2018-09-04T20:42:03.977Z,23.00
2018-09-04T20:44:35.679Z,22.70
2018-09-04T20:47:07.250Z,22.60
2018-09-04T20:49:38.682Z,22.40
2018-09-04T20:52:10.080Z,22.20
2018-09-04T20:54:41.918Z,22.00
2018-09-04T20:57:31.182Z,21.80
2018-09-04T21:00:08.591Z,21.60
2018-09-04T21:02:44.253Z,21.80
2018-09-04T21:05:20.277Z,21.70
2018-09-04T21:08:57.512Z,21.60
2018-09-04T21:11:31.083Z,21.70
2018-09-04T21:14:03.756Z,21.60
2018-09-04T21:16:35.293Z,21.70
2018-09-04T21:19:06.984Z,21.70
2018-09-04T21:21:39.004Z,21.90
2018-09-04T21:24:24.750Z,21.90
2018-09-04T21:26:56.602Z,22.00
2018-09-04T21:29:28.705Z,21.90
2018-09-04T21:32:01.349Z,21.90
2018-09-04T21:34:32.576Z,21.80
2018-09-04T21:37:04.182Z,21.60
2018-09-04T21:39:35.467Z,21.60
2018-09-04T21:42:07.435Z,21.50
2018-09-04T21:45:25.373Z,21.40
2018-09-04T21:47:56.758Z,21.20
2018-09-04T21:50:38.216Z,21.10
2018-09-04T21:53:09.913Z,21.10
2018-09-04T21:55:41.643Z,21.30
2018-09-04T21:58:13.534Z,21.30
2018-09-04T22:00:45.774Z,21.30
2018-09-04T22:03:28.636Z,21.30
2018-09-04T22:06:03.390Z,21.40
2018-09-04T22:08:36.650Z,21.10
2018-09-04T22:11:35.533Z,21.00
2018-09-04T22:14:07.839Z,20.80
2018-09-04T22:16:42.026Z,20.60
2018-09-04T22:19:13.649Z,20.40
2018-09-04T22:21:44.983Z,20.30
2018-09-04T22:24:42.022Z,20.20
2018-09-04T22:27:13.432Z,20.10
2018-09-04T22:29:46.570Z,20.10
2018-09-04T22:32:18.064Z,20.30
2018-09-04T22:34:49.901Z,20.60
2018-09-04T22:37:21.307Z,20.50
2018-09-04T22:39:52.618Z,20.70
2018-09-04T22:42:23.891Z,20.80
2018-09-04T22:44:56.026Z,20.90
2018-09-04T22:47:27.620Z,20.90
2018-09-04T22:50:03.300Z,20.90
2018-09-04T22:52:34.613Z,20.90
2018-09-04T22:55:10.624Z,20.90
2018-09-04T22:57:42.372Z,20.80
2018-09-04T23:00:14.944Z,20.60
2018-09-04T23:02:51.701Z,20.40
2018-09-04T23:05:26.287Z,20.60
2018-09-04T23:07:57.999Z,20.70
2018-09-04T23:10:29.315Z,20.70
2018-09-04T23:13:00.494Z,20.40
2018-09-04T23:15:32.993Z,20.30
2018-09-04T23:18:04.441Z,20.10
2018-09-04T23:20:35.781Z,20.10
2018-09-04T23:23:07.112Z,20.10
2018-09-04T23:25:38.704Z,20.30
2018-09-04T23:28:11.122Z,20.40
2018-09-04T23:30:45.333Z,20.30
2018-09-04T23:33:16.703Z,20.30
2018-09-04T23:35:48.720Z,20.50
2018-09-04T23:38:21.600Z,20.50
2018-09-04T23:40:53.340Z,20.40
2018-09-04T23:43:26.479Z,20.30
2018-09-04T23:45:59.946Z,20.30
2018-09-04T23:48:32.511Z,20.40
2018-09-04T23:51:05.025Z,20.40
2018-09-04T23:53:36.893Z,20.40
2018-09-04T23:56:09.441Z,20.40
2018-09-04T23:58:40.977Z,20.30
